Time;durP1;ratioP1;P1;durP2;ratioP2;P2;SDS_P1;SDS_P2;PMS_P1;PMS_P2;Temp;Humidity;BMP_temperature;BMP_pressure;BME280_temperature;BME280_humidity;BME280_pressure;Samples;Min_cycle;Max_cycle;Signal;HPM_P1;HPM_P2
2024/03/18 00:00:14;;;;;;;9.80;8.60;;;13.10;99.90;;;;;;4919178;29;20465;-61
2024/03/18 00:02:54;;;;;;;9.30;8.40;;;13.00;99.90;;;;;;4919474;29;20425;-61
2024/03/18 00:05:21;;;;;;;8.70;7.90;;;13.00;99.90;;;;;;4902103;29;20402;-62
2024/03/18 00:07:49;;;;;;;10.70;8.70;;;13.10;99.90;;;;;;4919082;29;20402;-62
2024/03/18 00:10:15;;;;;;;9.67;8.70;;;13.10;99.90;;;;;;4918767;29;20465;-62
2024/03/18 00:12:43;;;;;;;8.60;7.80;;;13.00;99.90;;;;;;4919346;29;20798;-61
2024/03/18 00:15:10;;;;;;;12.13;8.47;;;13.00;99.90;;;;;;4918689;29;20264;-62
2024/03/18 00:17:37;;;;;;;11.03;9.93;;;13.00;99.90;;;;;;4919257;29;20410;-61
2024/03/18 00:20:13;;;;;;;9.90;8.90;;;13.00;99.90;;;;;;4919076;29;20622;-61
2024/03/18 00:22:43;;;;;;;10.07;8.87;;;13.00;99.90;;;;;;4919244;29;20484;-61
2024/03/18 00:25:11;;;;;;;9.83;8.80;;;13.00;99.90;;;;;;4918663;29;20409;-62
2024/03/18 00:27:37;;;;;;;9.43;8.50;;;13.00;99.90;;;;;;4918635;29;20935;-61
2024/03/18 00:30:04;;;;;;;14.80;9.33;;;13.00;99.90;;;;;;4919383;29;20408;-61
2024/03/18 00:32:30;;;;;;;10.93;8.93;;;13.10;99.90;;;;;;4918408;29;20441;-62
2024/03/18 00:34:58;;;;;;;10.27;9.17;;;13.10;99.90;;;;;;4918909;29;20395;-62
2024/03/18 00:37:23;;;;;;;11.67;9.50;;;13.10;99.90;;;;;;4918298;29;20208;-62
2024/03/18 00:39:49;;;;;;;10.17;9.17;;;13.10;99.90;;;;;;4901820;29;20471;-62
2024/03/18 00:42:15;;;;;;;10.43;9.33;;;13.10;99.90;;;;;;4918280;29;20406;-62
2024/03/18 00:44:41;;;;;;;10.90;9.90;;;13.00;99.90;;;;;;4933016;29;20193;-62
2024/03/18 00:47:07;;;;;;;14.40;10.70;;;13.00;99.90;;;;;;4933029;29;20192;-61
2024/03/18 00:49:33;;;;;;;10.67;9.57;;;13.00;99.90;;;;;;4918708;29;20204;-62
2024/03/18 00:51:59;;;;;;;13.67;10.70;;;13.00;99.90;;;;;;4918648;29;20424;-62
2024/03/18 00:54:25;;;;;;;11.10;9.20;;;13.00;99.90;;;;;;4917960;29;20257;-62
2024/03/18 00:56:51;;;;;;;11.93;10.73;;;13.00;99.90;;;;;;4918644;29;20628;-62
2024/03/18 00:59:17;;;;;;;11.10;9.67;;;13.00;99.90;;;;;;4917926;29;20230;-62
2024/03/18 01:01:43;;;;;;;12.20;10.00;;;12.90;99.90;;;;;;4933090;29;20497;-61
2024/03/18 01:04:09;;;;;;;10.90;9.53;;;13.00;99.90;;;;;;4918298;29;20509;-61
2024/03/18 01:06:35;;;;;;;12.90;11.30;;;13.30;99.90;;;;;;4918389;29;20181;-61
2024/03/18 01:09:02;;;;;;;11.23;10.13;;;12.90;99.90;;;;;;4918476;29;20414;-62
2024/03/18 01:11:29;;;;;;;14.00;10.77;;;13.00;99.90;;;;;;4917767;29;20486;-61
2024/03/18 01:13:54;;;;;;;12.07;10.40;;;13.00;99.90;;;;;;4918278;29;20450;-62
2024/03/18 01:16:24;;;;;;;12.17;10.97;;;13.00;99.90;;;;;;4917699;29;20479;-61
2024/03/18 01:18:51;;;;;;;11.40;10.20;;;13.00;99.90;;;;;;4918276;29;20540;-62
2024/03/18 01:21:18;;;;;;;12.30;11.00;;;12.90;99.90;;;;;;4917527;29;20766;-61
2024/03/18 01:23:46;;;;;;;12.67;11.37;;;12.90;99.90;;;;;;4918198;29;20413;-62
2024/03/18 01:26:11;;;;;;;12.80;11.50;;;12.90;99.90;;;;;;4917356;29;20453;-61
2024/03/18 01:28:38;;;;;;;14.10;11.10;;;12.80;99.90;;;;;;4918113;29;20528;-62
2024/03/18 01:31:03;;;;;;;12.83;10.50;;;12.80;99.90;;;;;;4917631;29;20668;-61
2024/03/18 01:33:33;;;;;;;14.20;11.77;;;12.80;99.90;;;;;;4917275;29;20404;-61
2024/03/18 01:35:59;;;;;;;14.27;11.63;;;12.80;99.90;;;;;;4917987;29;20179;-62
2024/03/18 01:38:25;;;;;;;14.97;12.73;;;12.70;99.90;;;;;;4917216;29;20458;-61
2024/03/18 01:40:52;;;;;;;14.20;12.60;;;12.70;99.90;;;;;;4918024;29;20413;-61
2024/03/18 01:43:19;;;;;;;13.37;11.63;;;12.80;99.90;;;;;;4916849;29;20839;-62
2024/03/18 01:45:46;;;;;;;14.60;11.80;;;12.70;99.90;;;;;;4917665;29;20415;-62
2024/03/18 01:48:13;;;;;;;16.03;11.53;;;12.80;99.90;;;;;;4917426;29;20422;-62
2024/03/18 01:50:43;;;;;;;12.90;10.83;;;12.80;99.90;;;;;;4917513;29;20504;-62
2024/03/18 01:53:12;;;;;;;12.20;11.00;;;12.80;99.90;;;;;;4917593;29;20761;-62
2024/03/18 01:55:39;;;;;;;17.00;12.90;;;12.80;99.90;;;;;;4917517;29;20438;-61
2024/03/18 01:58:06;;;;;;;14.23;11.93;;;12.80;99.90;;;;;;4916765;29;20421;-61
2024/03/18 02:00:38;;;;;;;13.80;12.37;;;12.80;99.90;;;;;;4916834;29;20460;-61
2024/03/18 02:03:09;;;;;;;14.60;12.20;;;12.80;99.90;;;;;;4917129;29;20898;-61
2024/03/18 02:05:36;;;;;;;13.80;10.77;;;12.80;99.90;;;;;;4916821;29;20462;-62
2024/03/18 02:08:03;;;;;;;11.97;10.63;;;12.80;99.90;;;;;;4917534;29;20410;-62
2024/03/18 02:10:29;;;;;;;11.80;10.60;;;12.80;99.90;;;;;;4916638;29;20409;-61
2024/03/18 02:13:00;;;;;;;12.53;10.60;;;12.80;99.90;;;;;;4917174;29;20424;-61
2024/03/18 02:15:26;;;;;;;12.53;11.13;;;12.80;99.90;;;;;;4916559;29;20765;-62
2024/03/18 02:17:53;;;;;;;13.00;10.57;;;12.80;99.90;;;;;;4917327;29;20897;-62
2024/03/18 02:20:20;;;;;;;13.00;11.63;;;12.80;99.90;;;;;;4916491;29;20422;-61
2024/03/18 02:22:46;;;;;;;12.60;9.90;;;12.80;99.90;;;;;;4916946;29;20467;-62
2024/03/18 02:25:12;;;;;;;14.27;11.20;;;12.70;99.90;;;;;;4900094;29;20961;-62
2024/03/18 02:27:38;;;;;;;12.97;11.00;;;12.50;99.90;;;;;;4915826;29;20429;-61
2024/03/18 02:30:04;;;;;;;11.47;10.27;;;12.50;99.90;;;;;;4916904;29;20414;-62
2024/03/18 02:32:33;;;;;;;12.70;11.40;;;12.60;99.90;;;;;;4916033;29;20328;-61
2024/03/18 02:34:59;;;;;;;10.20;9.20;;;12.60;99.90;;;;;;4916899;29;20411;-61
2024/03/18 02:37:25;;;;;;;13.77;11.27;;;12.40;99.90;;;;;;4930864;29;20812;-62
2024/03/18 02:39:52;;;;;;;12.90;10.73;;;12.40;99.90;;;;;;4916644;29;20553;-61
2024/03/18 02:42:18;;;;;;;17.57;11.40;;;12.50;99.90;;;;;;4916190;29;20648;-62
2024/03/18 02:44:44;;;;;;;13.83;10.87;;;12.50;99.90;;;;;;4916876;29;20494;-61
2024/03/18 02:47:09;;;;;;;13.00;11.00;;;12.50;99.90;;;;;;4916641;29;20624;-61
2024/03/18 02:49:35;;;;;;;12.60;10.53;;;12.40;99.90;;;;;;4916006;29;20387;-62
2024/03/18 02:52:01;;;;;;;12.20;10.33;;;12.40;99.90;;;;;;4916594;29;20215;-61
2024/03/18 02:54:26;;;;;;;12.97;10.10;;;12.40;99.90;;;;;;4915735;29;20181;-62
2024/03/18 02:56:52;;;;;;;11.60;10.40;;;12.40;99.90;;;;;;4916403;29;20190;-62
2024/03/18 02:59:18;;;;;;;11.23;10.03;;;12.40;99.90;;;;;;4915950;29;20208;-62
2024/03/18 03:01:49;;;;;;;11.83;10.60;;;12.40;99.90;;;;;;4916486;29;20181;-61
2024/03/18 03:04:15;;;;;;;12.17;10.93;;;12.50;99.90;;;;;;4916799;29;20170;-62
2024/03/18 03:06:41;;;;;;;13.53;10.97;;;12.50;99.90;;;;;;4915849;29;20429;-62
2024/03/18 03:09:06;;;;;;;11.63;10.00;;;12.50;99.90;;;;;;4916364;29;20421;-61
2024/03/18 03:11:32;;;;;;;12.40;10.90;;;12.50;99.90;;;;;;4915803;29;20194;-62
2024/03/18 03:13:58;;;;;;;11.80;10.60;;;12.50;99.90;;;;;;4916357;29;20181;-62
2024/03/18 03:16:24;;;;;;;13.10;11.37;;;12.60;99.90;;;;;;4915729;29;20174;-62
2024/03/18 03:18:49;;;;;;;13.00;10.70;;;12.60;99.90;;;;;;4916299;29;20217;-61
2024/03/18 03:21:18;;;;;;;11.97;10.77;;;12.60;99.90;;;;;;4931052;29;20171;-62
2024/03/18 03:23:45;;;;;;;11.83;10.63;;;12.60;99.90;;;;;;4916275;29;20178;-62
2024/03/18 03:26:11;;;;;;;14.97;11.43;;;12.60;99.90;;;;;;4915969;29;20903;-62
2024/03/18 03:28:37;;;;;;;12.50;10.13;;;12.60;99.90;;;;;;4915229;29;20470;-61
2024/03/18 03:31:08;;;;;;;13.93;10.40;;;12.40;99.90;;;;;;4916168;29;20196;-62
2024/03/18 03:33:35;;;;;;;14.80;11.10;;;12.40;99.90;;;;;;4915421;29;20829;-61
2024/03/18 03:36:01;;;;;;;11.33;10.13;;;12.40;99.90;;;;;;4916126;29;20404;-61
2024/03/18 03:38:27;;;;;;;11.07;9.83;;;12.50;99.90;;;;;;4915208;29;20468;-62
2024/03/18 03:40:54;;;;;;;12.43;10.60;;;12.50;99.90;;;;;;4916061;29;20406;-61
2024/03/18 03:43:21;;;;;;;13.63;9.90;;;12.60;99.90;;;;;;4915524;29;20488;-62
2024/03/18 03:45:55;;;;;;;14.00;11.33;;;12.60;99.90;;;;;;4916080;29;20407;-62
2024/03/18 03:48:22;;;;;;;12.83;10.77;;;12.60;99.90;;;;;;4915341;29;20904;-62
2024/03/18 03:50:47;;;;;;;11.93;10.60;;;12.60;99.90;;;;;;4916146;29;20422;-61
2024/03/18 03:53:13;;;;;;;12.57;10.60;;;12.70;99.90;;;;;;4915729;29;20424;-62
2024/03/18 03:55:39;;;;;;;11.87;10.67;;;12.60;99.90;;;;;;4915463;29;20400;-62
2024/03/18 03:58:05;;;;;;;10.97;9.87;;;;;;;;;;4915475;29;20602;-62
2024/03/18 04:00:34;;;;;;;12.07;10.70;;;12.60;99.90;;;;;;4915155;29;20590;-62
2024/03/18 04:02:59;;;;;;;11.87;10.47;;;12.60;99.90;;;;;;4916038;29;20911;-62
2024/03/18 04:05:25;;;;;;;12.40;11.13;;;12.60;99.90;;;;;;4915403;29;20445;-62
2024/03/18 04:07:51;;;;;;;11.37;10.20;;;12.60;99.90;;;;;;4916132;29;20234;-61
2024/03/18 04:10:17;;;;;;;12.47;11.13;;;12.60;99.90;;;;;;4915852;29;20616;-62
2024/03/18 04:12:43;;;;;;;12.03;10.80;;;12.50;99.90;;;;;;4915285;29;20171;-62
2024/03/18 04:15:11;;;;;;;12.20;10.90;;;12.50;99.90;;;;;;4915748;29;20574;-61
2024/03/18 04:17:37;;;;;;;13.17;10.67;;;12.50;99.90;;;;;;4915194;29;20825;-62
2024/03/18 04:20:18;;;;;;;12.90;10.13;;;12.50;99.90;;;;;;4915721;29;20450;-62
2024/03/18 04:22:53;;;;;;;13.13;9.70;;;12.60;99.90;;;;;;4918119;29;20462;-61
2024/03/18 04:25:20;;;;;;;11.43;10.10;;;12.60;99.90;;;;;;4919159;29;20774;-61
2024/03/18 04:27:47;;;;;;;12.03;10.80;;;12.60;99.90;;;;;;4917881;29;20461;-61
2024/03/18 04:30:19;;;;;;;10.63;9.40;;;12.60;99.90;;;;;;4933579;29;20438;-62
2024/03/18 04:32:47;;;;;;;13.23;9.47;;;12.60;99.90;;;;;;4918396;29;20415;-61
2024/03/18 04:35:13;;;;;;;10.70;9.60;;;12.60;99.90;;;;;;4918901;29;20409;-61
2024/03/18 04:37:45;;;;;;;11.20;9.53;;;12.60;99.90;;;;;;4918359;29;20413;-62
2024/03/18 04:40:12;;;;;;;11.23;10.03;;;12.60;99.90;;;;;;4918898;29;20465;-61
2024/03/18 04:42:39;;;;;;;11.17;9.93;;;12.60;99.90;;;;;;4918286;29;20414;-62
2024/03/18 04:45:06;;;;;;;11.20;10.10;;;12.60;99.90;;;;;;4918508;29;20434;-62
2024/03/18 04:47:39;;;;;;;10.00;9.00;;;12.60;99.90;;;;;;4917799;29;20930;-62
2024/03/18 04:50:10;;;;;;;10.93;9.27;;;12.60;99.90;;;;;;4918829;29;20413;-62
2024/03/18 04:52:36;;;;;;;10.67;9.53;;;12.60;99.90;;;;;;4918078;29;20772;-61
2024/03/18 04:55:03;;;;;;;10.80;9.70;;;12.60;99.90;;;;;;4918511;29;20415;-62
2024/03/18 04:57:29;;;;;;;10.00;8.87;;;12.60;99.90;;;;;;4918119;29;20456;-62
2024/03/18 04:59:55;;;;;;;10.90;9.43;;;12.60;99.90;;;;;;4918479;29;20470;-62
2024/03/18 05:02:21;;;;;;;10.17;9.10;;;12.60;99.90;;;;;;4918393;29;20517;-61
2024/03/18 05:04:48;;;;;;;9.80;8.90;;;12.60;99.90;;;;;;4917901;29;20439;-62
2024/03/18 05:07:14;;;;;;;10.50;9.50;;;12.60;99.90;;;;;;4918521;29;20441;-61
2024/03/18 05:09:44;;;;;;;11.43;9.87;;;12.60;99.90;;;;;;4917515;29;20507;-61
2024/03/18 05:12:13;;;;;;;10.50;9.50;;;12.60;99.90;;;;;;4901428;29;20429;-62
2024/03/18 05:14:39;;;;;;;10.50;9.53;;;12.60;99.90;;;;;;4917644;29;20402;-61
2024/03/18 05:17:05;;;;;;;10.90;9.70;;;12.60;99.90;;;;;;4918209;29;20418;-62
2024/03/18 05:19:31;;;;;;;10.47;8.87;;;12.60;99.90;;;;;;4917575;29;20501;-61
2024/03/18 05:21:57;;;;;;;11.47;10.27;;;12.60;99.90;;;;;;4918310;29;20758;-61
2024/03/18 05:24:23;;;;;;;9.50;8.10;;;12.60;99.90;;;;;;4918109;29;20520;-62
2024/03/18 05:26:49;;;;;;;11.83;9.17;;;12.60;99.90;;;;;;4917208;29;20414;-61
2024/03/18 05:29:15;;;;;;;10.87;9.40;;;12.60;99.90;;;;;;4917944;29;20237;-62
2024/03/18 05:31:40;;;;;;;13.87;10.23;;;12.60;99.90;;;;;;4917221;29;20436;-62
2024/03/18 05:34:08;;;;;;;11.20;9.90;;;12.60;99.90;;;;;;4916865;29;20185;-62
2024/03/18 05:36:34;;;;;;;10.87;9.77;;;12.60;99.90;;;;;;4917301;29;20189;-62
2024/03/18 05:39:00;;;;;;;10.13;8.93;;;12.70;99.90;;;;;;4917810;29;20454;-62
2024/03/18 05:41:26;;;;;;;11.23;10.13;;;12.60;99.90;;;;;;4917475;29;20178;-62
2024/03/18 05:43:52;;;;;;;10.07;9.07;;;12.70;99.90;;;;;;4917651;29;20636;-62
2024/03/18 05:46:21;;;;;;;11.23;10.23;;;12.70;99.90;;;;;;4917636;29;20420;-61
2024/03/18 05:48:47;;;;;;;11.50;10.10;;;12.70;99.90;;;;;;4931706;29;20457;-62
2024/03/18 05:51:14;;;;;;;11.00;9.77;;;12.70;99.90;;;;;;4917589;29;20469;-62
2024/03/18 05:53:40;;;;;;;11.50;10.00;;;12.70;99.90;;;;;;4916993;29;20409;-62
2024/03/18 05:56:06;;;;;;;10.60;9.50;;;12.70;99.90;;;;;;4917298;29;20438;-62
2024/03/18 05:58:39;;;;;;;10.07;9.07;;;12.70;99.90;;;;;;4916787;29;20518;-62
2024/03/18 06:01:10;;;;;;;9.30;8.40;;;12.70;99.90;;;;;;4932031;29;20737;-62
2024/03/18 06:03:37;;;;;;;9.23;8.40;;;12.80;99.90;;;;;;4930577;29;20903;-61
2024/03/18 06:06:07;;;;;;;9.90;8.90;;;12.80;99.90;;;;;;4900264;29;20776;-62
2024/03/18 06:08:33;;;;;;;9.87;8.40;;;12.80;99.90;;;;;;4916366;29;20930;-62
2024/03/18 06:11:00;;;;;;;10.07;8.70;;;12.80;99.90;;;;;;4917289;29;20410;-62
2024/03/18 06:13:25;;;;;;;10.37;9.30;;;12.80;99.90;;;;;;4917129;29;20421;-62
2024/03/18 06:15:52;;;;;;;9.10;8.23;;;12.80;99.90;;;;;;4916476;29;20410;-62
2024/03/18 06:18:18;;;;;;;9.37;8.50;;;12.80;99.90;;;;;;4917066;29;20428;-62
2024/03/18 06:20:47;;;;;;;9.50;8.60;;;12.80;99.90;;;;;;4931039;29;20448;-62
2024/03/18 06:23:16;;;;;;;9.10;8.07;;;12.80;99.90;;;;;;4916995;29;20473;-62
2024/03/18 06:25:57;;;;;;;9.97;9.03;;;12.80;99.90;;;;;;4916238;29;20418;-62
2024/03/18 06:28:23;;;;;;;11.50;10.30;;;12.90;99.90;;;;;;4899813;29;20931;-61
2024/03/18 06:30:52;;;;;;;8.47;7.67;;;12.90;99.90;;;;;;4916264;29;20777;-61
2024/03/18 06:33:18;;;;;;;8.37;7.43;;;12.90;99.90;;;;;;4931526;29;20422;-62
2024/03/18 06:35:47;;;;;;;10.07;9.07;;;13.00;99.90;;;;;;4916118;29;20414;-62
2024/03/18 06:38:14;;;;;;;8.53;7.20;;;13.00;99.90;;;;;;4917083;29;20506;-62
2024/03/18 06:40:40;;;;;;;9.23;8.30;;;13.00;99.90;;;;;;4916158;29;20418;-62
2024/03/18 06:43:07;;;;;;;8.20;7.40;;;13.00;99.90;;;;;;4916831;29;20417;-61
2024/03/18 06:45:36;;;;;;;7.50;6.70;;;13.10;99.90;;;;;;4915276;29;21019;-62
2024/03/18 06:48:03;;;;;;;12.60;8.00;;;13.10;99.90;;;;;;4916672;29;20422;-62
2024/03/18 06:50:35;;;;;;;8.30;7.50;;;13.10;99.90;;;;;;4916608;29;20399;-61
2024/03/18 06:53:01;;;;;;;8.50;7.60;;;13.10;99.90;;;;;;4916614;29;20824;-61
2024/03/18 06:55:29;;;;;;;10.87;9.97;;;13.10;99.90;;;;;;4916491;29;20454;-61
2024/03/18 06:57:55;;;;;;;9.97;8.90;;;13.10;99.90;;;;;;4916473;29;20427;-62
2024/03/18 07:00:23;;;;;;;11.10;9.27;;;13.10;99.90;;;;;;4916451;29;20458;-62
2024/03/18 07:02:50;;;;;;;11.47;10.37;;;13.20;99.90;;;;;;4915609;29;20646;-61
2024/03/18 07:05:25;;;;;;;10.73;9.73;;;13.20;99.90;;;;;;4916394;29;20469;-61
2024/03/18 07:07:51;;;;;;;11.37;9.53;;;13.20;99.90;;;;;;4915933;29;20644;-61
2024/03/18 07:10:18;;;;;;;10.93;8.70;;;13.20;99.90;;;;;;4916412;29;20415;-62
2024/03/18 07:12:45;;;;;;;9.17;8.27;;;13.10;99.90;;;;;;4915784;29;20409;-61
2024/03/18 07:15:12;;;;;;;11.93;10.73;;;13.10;99.90;;;;;;4916397;29;20402;-62
2024/03/18 07:17:39;;;;;;;10.67;9.67;;;13.10;99.90;;;;;;4898865;29;20421;-62
2024/03/18 07:20:06;;;;;;;11.10;8.70;;;13.10;99.90;;;;;;4916347;29;20462;-62
2024/03/18 07:22:40;;;;;;;10.43;9.33;;;13.20;99.90;;;;;;4916042;29;20414;-61
2024/03/18 07:25:11;;;;;;;9.97;8.57;;;13.20;99.90;;;;;;4930879;29;20403;-62
2024/03/18 07:27:38;;;;;;;11.40;10.20;;;13.20;99.90;;;;;;4915700;29;20425;-61
2024/03/18 07:30:08;;;;;;;10.60;9.07;;;13.30;99.90;;;;;;4915027;29;20566;-62
2024/03/18 07:32:34;;;;;;;12.47;11.23;;;13.30;99.90;;;;;;4915723;29;20786;-61
2024/03/18 07:35:00;;;;;;;13.30;11.10;;;13.30;99.90;;;;;;4916179;29;20506;-61
2024/03/18 07:37:26;;;;;;;10.90;9.80;;;13.30;99.90;;;;;;4916190;29;20872;-62
2024/03/18 07:39:52;;;;;;;11.83;9.50;;;13.30;99.90;;;;;;4915206;29;20219;-62
2024/03/18 07:42:18;;;;;;;9.57;8.50;;;13.40;99.90;;;;;;4899186;29;20426;-62
2024/03/18 07:44:43;;;;;;;9.83;8.53;;;13.40;99.90;;;;;;4915586;29;20634;-61
2024/03/18 07:47:09;;;;;;;9.67;8.43;;;13.40;99.90;;;;;;4916054;29;20511;-62
2024/03/18 07:49:38;;;;;;;11.63;8.90;;;13.40;99.90;;;;;;4915452;29;20186;-62
2024/03/18 07:52:05;;;;;;;12.13;10.27;;;13.50;99.90;;;;;;4930649;29;20205;-62
2024/03/18 07:54:32;;;;;;;13.13;11.47;;;13.50;99.90;;;;;;4930605;29;20971;-62
2024/03/18 07:56:58;;;;;;;21.13;15.57;;;13.50;99.90;;;;;;4917492;29;20457;-62
2024/03/18 07:59:24;;;;;;;24.00;16.93;;;13.50;99.90;;;;;;4919498;29;20511;-61
2024/03/18 08:01:50;;;;;;;22.27;16.80;;;13.60;99.90;;;;;;4933414;29;20180;-62
2024/03/18 08:04:16;;;;;;;28.90;21.67;;;13.60;99.90;;;;;;4919515;29;20799;-62
2024/03/18 08:06:46;;;;;;;20.90;18.50;;;13.70;99.90;;;;;;4918944;29;20907;-62
2024/03/18 08:09:14;;;;;;;20.07;16.13;;;13.80;99.90;;;;;;4919130;29;20424;-62
2024/03/18 08:11:44;;;;;;;30.13;21.37;;;13.80;99.90;;;;;;4918873;29;20404;-62
2024/03/18 08:14:10;;;;;;;19.53;14.80;;;13.80;99.90;;;;;;4919764;29;20416;-62
2024/03/18 08:16:36;;;;;;;25.20;18.77;;;13.70;99.90;;;;;;4933470;29;20558;-62
2024/03/18 08:19:06;;;;;;;16.73;15.03;;;13.60;99.90;;;;;;4919177;29;20218;-61
2024/03/18 08:21:32;;;;;;;16.03;13.50;;;13.70;99.90;;;;;;4919254;29;20433;-62
2024/03/18 08:23:58;;;;;;;23.47;18.10;;;13.80;99.90;;;;;;4918306;29;20780;-62
2024/03/18 08:26:25;;;;;;;17.80;15.10;;;13.90;99.90;;;;;;4918975;29;20422;-62
2024/03/18 08:28:51;;;;;;;17.33;15.40;;;14.00;99.90;;;;;;4918100;29;20474;-62
2024/03/18 08:31:17;;;;;;;17.17;14.17;;;14.10;99.90;;;;;;4919139;29;20940;-62
2024/03/18 08:33:42;;;;;;;15.80;12.30;;;14.20;99.90;;;;;;4918492;29;20188;-62
2024/03/18 08:36:08;;;;;;;13.80;11.00;;;14.20;99.90;;;;;;4918911;29;20184;-62
2024/03/18 08:38:34;;;;;;;15.60;12.27;;;14.30;99.90;;;;;;4919308;29;20281;-62
2024/03/18 08:41:00;;;;;;;12.57;11.10;;;14.30;99.90;;;;;;4918330;29;20409;-62
2024/03/18 08:43:25;;;;;;;10.17;9.10;;;14.40;99.90;;;;;;4933497;29;20185;-62
2024/03/18 08:45:55;;;;;;;11.43;10.00;;;14.50;99.90;;;;;;4918207;29;20184;-62
2024/03/18 08:48:21;;;;;;;10.87;9.93;;;14.50;99.90;;;;;;4918815;29;20191;-62
2024/03/18 08:50:47;;;;;;;12.20;10.70;;;14.50;99.90;;;;;;4918144;29;20480;-62
2024/03/18 08:53:14;;;;;;;26.43;19.63;;;14.50;99.90;;;;;;4918628;29;20409;-62
2024/03/18 08:55:40;;;;;;;11.90;10.80;;;14.60;99.90;;;;;;4917808;29;20829;-62
2024/03/18 08:58:06;;;;;;;10.30;9.20;;;14.60;99.90;;;;;;4933138;29;20482;-62
2024/03/18 09:00:33;;;;;;;11.60;10.50;;;14.60;99.90;;;;;;4918374;29;20547;-62
2024/03/18 09:02:59;;;;;;;15.33;10.77;;;14.70;99.90;;;;;;4900939;29;20414;-62
2024/03/18 09:05:25;;;;;;;9.37;8.57;;;14.80;99.90;;;;;;4918486;29;20433;-62
2024/03/18 09:07:50;;;;;;;11.47;10.00;;;14.90;99.90;;;;;;4917217;29;20173;-62
2024/03/18 09:10:16;;;;;;;12.20;11.00;;;14.90;99.90;;;;;;4918355;29;20185;-62
2024/03/18 09:12:43;;;;;;;13.03;11.73;;;15.00;99.90;;;;;;4917639;29;20291;-62
2024/03/18 09:15:10;;;;;;;10.93;9.80;;;15.10;99.90;;;;;;4901355;29;20422;-62
2024/03/18 09:17:36;;;;;;;9.17;8.37;;;15.30;99.90;;;;;;4918372;29;20441;-62
2024/03/18 09:20:04;;;;;;;10.10;9.10;;;15.40;99.90;;;;;;4917418;29;20466;-62
2024/03/18 09:22:30;;;;;;;9.03;8.23;;;15.40;99.90;;;;;;4918162;29;20222;-62
2024/03/18 09:24:56;;;;;;;8.83;8.00;;;15.50;99.90;;;;;;4917504;29;20410;-62
2024/03/18 09:27:22;;;;;;;10.57;9.47;;;15.60;99.90;;;;;;4918278;29;20771;-62
2024/03/18 09:29:49;;;;;;;9.20;8.33;;;15.60;99.90;;;;;;4917054;29;20236;-62
2024/03/18 09:32:15;;;;;;;11.03;10.00;;;15.70;99.90;;;;;;4918052;29;20178;-62
2024/03/18 09:34:42;;;;;;;10.13;9.13;;;15.70;99.90;;;;;;4917385;29;20813;-62
2024/03/18 09:37:08;;;;;;;10.37;9.37;;;15.70;99.90;;;;;;4917904;29;20186;-62
2024/03/18 09:39:34;;;;;;;10.50;9.50;;;15.70;99.90;;;;;;4917797;29;20470;-62
2024/03/18 09:42:00;;;;;;;10.27;9.17;;;15.60;99.90;;;;;;4917027;29;20515;-62
2024/03/18 09:44:26;;;;;;;12.07;10.87;;;15.60;99.90;;;;;;4932587;29;20568;-62
2024/03/18 09:46:52;;;;;;;12.50;9.23;;;15.60;99.90;;;;;;4917110;29;20186;-62
2024/03/18 09:49:22;;;;;;;12.47;11.20;;;15.50;99.90;;;;;;4917402;29;20178;-62
2024/03/18 09:51:49;;;;;;;13.50;12.20;;;15.50;99.90;;;;;;4917165;29;20407;-62
2024/03/18 09:54:16;;;;;;;10.70;9.60;;;15.40;99.90;;;;;;4917842;29;20402;-62
2024/03/18 09:57:03;;;;;;;10.17;9.17;;;15.40;99.90;;;;;;4916838;29;20437;-62
2024/03/18 09:59:28;;;;;;;12.80;9.27;;;15.30;99.90;;;;;;4917427;29;20990;-62
2024/03/18 10:01:54;;;;;;;9.93;8.93;;;15.30;99.90;;;;;;4900000;29;20486;-61
2024/03/18 10:04:21;;;;;;;11.50;9.20;;;15.20;99.90;;;;;;4932041;29;20194;-62
2024/03/18 10:06:47;;;;;;;10.60;9.60;;;15.30;99.90;;;;;;4916732;29;20213;-62
2024/03/18 10:09:15;;;;;;;13.17;10.10;;;15.20;99.90;;;;;;4917281;29;20843;-62
2024/03/18 10:11:44;;;;;;;9.67;8.87;;;15.30;99.90;;;;;;4917196;29;20175;-62
2024/03/18 10:14:11;;;;;;;12.43;9.20;;;15.30;99.90;;;;;;4917232;29;20410;-62
2024/03/18 10:16:38;;;;;;;10.10;9.10;;;15.30;99.90;;;;;;4917234;29;20420;-62
2024/03/18 10:19:06;;;;;;;10.83;8.70;;;15.30;99.90;;;;;;4915865;29;20463;-62
2024/03/18 10:21:35;;;;;;;10.20;8.50;;;15.30;99.90;;;;;;4917104;29;20469;-62
2024/03/18 10:24:00;;;;;;;10.63;8.70;;;15.40;99.90;;;;;;4916549;29;20748;-62
2024/03/18 10:26:26;;;;;;;10.07;9.17;;;15.40;99.90;;;;;;4917127;29;20422;-62
2024/03/18 10:28:52;;;;;;;10.97;9.87;;;15.40;99.90;;;;;;4916404;29;20356;-62
2024/03/18 10:31:18;;;;;;;8.67;7.87;;;15.40;99.90;;;;;;4916996;29;20913;-62
2024/03/18 10:33:45;;;;;;;9.20;8.30;;;15.50;99.90;;;;;;4916315;29;20414;-62
2024/03/18 10:36:19;;;;;;;10.70;9.70;;;15.50;99.90;;;;;;4916983;29;20232;-62
2024/03/18 10:38:50;;;;;;;11.93;10.87;;;15.60;99.90;;;;;;4916194;29;20455;-62
2024/03/18 10:41:18;;;;;;;9.83;8.93;;;15.90;99.90;;;;;;4916892;29;20637;-62
2024/03/18 10:43:50;;;;;;;10.97;10.00;;;16.30;99.90;;;;;;4916092;29;20410;-61
2024/03/18 10:46:17;;;;;;;9.77;8.77;;;16.50;99.90;;;;;;4916761;29;20395;-61
2024/03/18 10:48:44;;;;;;;11.00;10.13;;;16.50;99.90;;;;;;4916943;29;20772;-61
2024/03/18 10:51:13;;;;;;;8.90;8.07;;;16.50;99.90;;;;;;4916620;29;20430;-61
2024/03/18 10:53:39;;;;;;;9.70;8.90;;;16.50;99.90;;;;;;4916772;29;20422;-61
2024/03/18 10:56:05;;;;;;;9.67;8.90;;;16.50;99.90;;;;;;4915895;29;20437;-61
2024/03/18 10:58:32;;;;;;;10.03;9.03;;;16.50;99.90;;;;;;4916827;29;20425;-61
2024/03/18 11:00:58;;;;;;;9.73;8.73;;;16.40;99.90;;;;;;4915584;29;20418;-61
2024/03/18 11:03:25;;;;;;;8.97;7.80;;;16.40;99.90;;;;;;4916584;29;20826;-61
2024/03/18 11:05:55;;;;;;;8.90;8.03;;;16.40;99.90;;;;;;4915872;29;20501;-61
2024/03/18 11:08:23;;;;;;;7.70;6.90;;;16.40;99.90;;;;;;4916442;29;20449;-61
2024/03/18 11:10:54;;;;;;;7.07;6.47;;;16.40;99.90;;;;;;4915752;29;20434;-61
2024/03/18 11:13:31;;;;;;;7.00;6.40;;;16.30;99.90;;;;;;4916518;29;20410;-61
2024/03/18 11:16:00;;;;;;;6.67;6.27;;;16.30;99.90;;;;;;4915702;29;20399;-61
2024/03/18 11:18:27;;;;;;;9.23;8.63;;;16.20;99.90;;;;;;4915977;29;20899;-61
2024/03/18 11:20:59;;;;;;;6.57;5.83;;;16.20;99.90;;;;;;4915758;29;20835;-61
2024/03/18 11:23:32;;;;;;;6.53;5.60;;;16.10;99.90;;;;;;4916314;29;20394;-61
2024/03/18 11:26:05;;;;;;;8.20;7.60;;;16.10;99.90;;;;;;4915518;29;20391;-61
2024/03/18 11:28:38;;;;;;;7.53;5.90;;;16.10;99.90;;;;;;4916256;29;20463;-61
2024/03/18 11:31:08;;;;;;;8.53;7.93;;;16.00;99.90;;;;;;4917940;29;20406;-61
2024/03/18 11:33:35;;;;;;;7.23;6.60;;;16.00;99.90;;;;;;4919988;29;20407;-61
2024/03/18 11:36:08;;;;;;;5.67;5.20;;;16.10;99.90;;;;;;4919457;29;20907;-61
2024/03/18 11:38:35;;;;;;;6.33;5.83;;;16.10;99.90;;;;;;4920089;29;20837;-61
2024/03/18 11:41:04;;;;;;;4.53;4.20;;;16.10;99.90;;;;;;4919235;29;20446;-61
2024/03/18 11:43:36;;;;;;;6.77;4.90;;;16.10;99.90;;;;;;4920014;29;20403;-61
2024/03/18 11:46:05;;;;;;;7.73;7.13;;;16.20;99.90;;;;;;4918815;29;20925;-61
2024/03/18 11:48:31;;;;;;;5.93;5.33;;;16.30;99.90;;;;;;4919628;29;20836;-62
2024/03/18 11:50:57;;;;;;;6.60;6.03;;;16.40;99.90;;;;;;4919116;29;20419;-61
2024/03/18 11:53:24;;;;;;;8.17;7.50;;;16.50;99.90;;;;;;4919629;29;20768;-61
2024/03/18 11:55:53;;;;;;;8.03;6.90;;;;;;;;;;4918968;29;20816;-61
2024/03/18 11:58:19;;;;;;;8.17;7.40;;;16.70;99.90;;;;;;4934218;29;20814;-60
2024/03/18 12:00:50;;;;;;;8.10;7.50;;;16.70;99.90;;;;;;4919588;29;20434;-61
2024/03/18 12:03:16;;;;;;;5.50;5.00;;;16.80;99.90;;;;;;4919579;29;20406;-61
2024/03/18 12:05:44;;;;;;;6.07;5.60;;;17.00;99.90;;;;;;4919524;29;20399;-61
2024/03/18 12:08:18;;;;;;;5.20;4.80;;;17.20;99.90;;;;;;4918593;29;20414;-61
2024/03/18 12:10:44;;;;;;;4.87;4.67;;;17.40;99.90;;;;;;4919516;29;20415;-62
2024/03/18 12:13:12;;;;;;;5.17;4.77;;;17.60;99.90;;;;;;4918741;29;20422;-61
2024/03/18 12:15:39;;;;;;;5.63;5.13;;;17.70;99.90;;;;;;4919481;29;20414;-61
2024/03/18 12:18:06;;;;;;;5.07;4.57;;;17.90;99.90;;;;;;4918505;29;20414;-61
2024/03/18 12:20:32;;;;;;;5.00;4.70;;;17.90;99.90;;;;;;4919183;29;20826;-61
2024/03/18 12:23:05;;;;;;;4.97;4.57;;;18.00;99.90;;;;;;4918613;29;20414;-61
2024/03/18 12:31:12;;;;;;;5.97;5.57;;;17.80;99.90;;;;;;4918199;29;20851;-61
2024/03/18 12:33:40;;;;;;;5.83;5.43;;;17.60;99.90;;;;;;4919167;29;20839;-61
2024/03/18 12:36:14;;;;;;;6.37;5.87;;;17.50;99.90;;;;;;4918398;29;20414;-61
2024/03/18 12:38:49;;;;;;;7.23;6.73;;;17.30;99.90;;;;;;4918552;29;20550;-61
2024/03/18 12:41:20;;;;;;;7.33;6.20;;;17.20;99.90;;;;;;4932245;29;21127;-61